sensor_id;sensor_type;location;lat;lon;timestamp;P1;durP1;ratioP1;P2;durP2;ratioP2
10100;SDS011;5090;51.258;4.436;2023-07-09T00:02:13;7.62;;;5.87;;
10100;SDS011;5090;51.258;4.436;2023-07-09T00:04:42;10.88;;;6.47;;
10100;SDS011;5090;51.258;4.436;2023-07-09T00:07:15;11.43;;;6.55;;
10100;SDS011;5090;51.258;4.436;2023-07-09T00:09:40;8.45;;;6.40;;
10100;SDS011;5090;51.258;4.436;2023-07-09T00:12:11;12.57;;;7.20;;
10100;SDS011;5090;51.258;4.436;2023-07-09T00:14:37;8.02;;;6.22;;
10100;SDS011;5090;51.258;4.436;2023-07-09T00:17:08;11.02;;;6.03;;
10100;SDS011;5090;51.258;4.436;2023-07-09T00:19:35;8.98;;;6.05;;
10100;SDS011;5090;51.258;4.436;2023-07-09T00:22:04;9.60;;;6.43;;
10100;SDS011;5090;51.258;4.436;2023-07-09T00:24:32;8.30;;;6.53;;
10100;SDS011;5090;51.258;4.436;2023-07-09T00:27:00;11.12;;;6.18;;
10100;SDS011;5090;51.258;4.436;2023-07-09T00:29:28;9.15;;;6.68;;
10100;SDS011;5090;51.258;4.436;2023-07-09T00:31:56;10.85;;;6.72;;
10100;SDS011;5090;51.258;4.436;2023-07-09T00:34:24;10.27;;;6.28;;
10100;SDS011;5090;51.258;4.436;2023-07-09T00:36:52;11.73;;;6.62;;
10100;SDS011;5090;51.258;4.436;2023-07-09T00:39:21;9.90;;;6.70;;
10100;SDS011;5090;51.258;4.436;2023-07-09T00:41:49;9.80;;;6.75;;
10100;SDS011;5090;51.258;4.436;2023-07-09T00:44:21;11.40;;;6.60;;
10100;SDS011;5090;51.258;4.436;2023-07-09T00:49:31;8.02;;;5.97;;
10100;SDS011;5090;51.258;4.436;2023-07-09T00:51:59;9.82;;;6.30;;
10100;SDS011;5090;51.258;4.436;2023-07-09T00:54:41;11.63;;;6.37;;
10100;SDS011;5090;51.258;4.436;2023-07-09T00:57:11;8.07;;;6.30;;
10100;SDS011;5090;51.258;4.436;2023-07-09T00:59:37;9.80;;;6.03;;
10100;SDS011;5090;51.258;4.436;2023-07-09T01:02:06;10.63;;;6.30;;
10100;SDS011;5090;51.258;4.436;2023-07-09T01:04:34;10.50;;;6.32;;
10100;SDS011;5090;51.258;4.436;2023-07-09T01:07:02;9.07;;;6.05;;
10100;SDS011;5090;51.258;4.436;2023-07-09T01:09:30;9.15;;;6.20;;
10100;SDS011;5090;51.258;4.436;2023-07-09T01:11:58;8.90;;;5.97;;
10100;SDS011;5090;51.258;4.436;2023-07-09T01:14:26;8.27;;;5.95;;
10100;SDS011;5090;51.258;4.436;2023-07-09T01:16:57;8.98;;;6.82;;
10100;SDS011;5090;51.258;4.436;2023-07-09T01:19:27;8.75;;;6.28;;
10100;SDS011;5090;51.258;4.436;2023-07-09T01:21:55;8.38;;;6.30;;
10100;SDS011;5090;51.258;4.436;2023-07-09T01:26:56;9.50;;;6.32;;
10100;SDS011;5090;51.258;4.436;2023-07-09T01:29:25;10.98;;;6.82;;
10100;SDS011;5090;51.258;4.436;2023-07-09T01:31:53;9.27;;;6.57;;
10100;SDS011;5090;51.258;4.436;2023-07-09T01:34:21;8.95;;;6.78;;
10100;SDS011;5090;51.258;4.436;2023-07-09T01:36:49;10.15;;;6.37;;
10100;SDS011;5090;51.258;4.436;2023-07-09T01:39:17;8.65;;;6.22;;
10100;SDS011;5090;51.258;4.436;2023-07-09T01:41:46;9.75;;;6.20;;
10100;SDS011;5090;51.258;4.436;2023-07-09T01:44:14;9.43;;;6.25;;
10100;SDS011;5090;51.258;4.436;2023-07-09T01:46:42;8.73;;;6.60;;
10100;SDS011;5090;51.258;4.436;2023-07-09T01:49:10;11.05;;;6.35;;
10100;SDS011;5090;51.258;4.436;2023-07-09T01:51:38;8.45;;;6.00;;
10100;SDS011;5090;51.258;4.436;2023-07-09T01:54:07;9.65;;;6.62;;
10100;SDS011;5090;51.258;4.436;2023-07-09T01:56:35;7.78;;;6.37;;
10100;SDS011;5090;51.258;4.436;2023-07-09T01:59:03;8.40;;;7.00;;
10100;SDS011;5090;51.258;4.436;2023-07-09T02:01:31;12.00;;;7.10;;
10100;SDS011;5090;51.258;4.436;2023-07-09T02:03:59;11.68;;;7.22;;
10100;SDS011;5090;51.258;4.436;2023-07-09T02:06:28;10.00;;;7.32;;
10100;SDS011;5090;51.258;4.436;2023-07-09T02:08:56;8.90;;;6.87;;
10100;SDS011;5090;51.258;4.436;2023-07-09T02:11:24;8.65;;;7.30;;
10100;SDS011;5090;51.258;4.436;2023-07-09T02:13:52;11.12;;;7.32;;
10100;SDS011;5090;51.258;4.436;2023-07-09T02:16:20;9.85;;;7.40;;
10100;SDS011;5090;51.258;4.436;2023-07-09T02:18:48;14.60;;;7.47;;
10100;SDS011;5090;51.258;4.436;2023-07-09T02:21:17;12.88;;;7.30;;
10100;SDS011;5090;51.258;4.436;2023-07-09T02:23:45;8.60;;;7.50;;
10100;SDS011;5090;51.258;4.436;2023-07-09T02:26:13;12.52;;;8.55;;
10100;SDS011;5090;51.258;4.436;2023-07-09T02:28:41;10.90;;;7.75;;
10100;SDS011;5090;51.258;4.436;2023-07-09T02:31:09;12.50;;;8.02;;
10100;SDS011;5090;51.258;4.436;2023-07-09T02:33:38;15.60;;;8.13;;
10100;SDS011;5090;51.258;4.436;2023-07-09T02:36:06;13.57;;;7.95;;
10100;SDS011;5090;51.258;4.436;2023-07-09T02:38:34;12.25;;;7.87;;
10100;SDS011;5090;51.258;4.436;2023-07-09T02:41:02;12.37;;;8.73;;
10100;SDS011;5090;51.258;4.436;2023-07-09T02:43:30;9.40;;;8.23;;
10100;SDS011;5090;51.258;4.436;2023-07-09T02:45:59;12.43;;;7.95;;
10100;SDS011;5090;51.258;4.436;2023-07-09T02:48:27;11.68;;;8.15;;
10100;SDS011;5090;51.258;4.436;2023-07-09T02:50:55;13.27;;;8.50;;
10100;SDS011;5090;51.258;4.436;2023-07-09T02:53:23;11.10;;;7.95;;
10100;SDS011;5090;51.258;4.436;2023-07-09T02:55:51;11.35;;;8.60;;
10100;SDS011;5090;51.258;4.436;2023-07-09T02:58:19;12.43;;;8.18;;
10100;SDS011;5090;51.258;4.436;2023-07-09T03:00:49;10.57;;;7.53;;
10100;SDS011;5090;51.258;4.436;2023-07-09T03:03:17;12.70;;;8.50;;
10100;SDS011;5090;51.258;4.436;2023-07-09T03:05:45;12.20;;;8.38;;
10100;SDS011;5090;51.258;4.436;2023-07-09T03:08:13;11.20;;;7.95;;
10100;SDS011;5090;51.258;4.436;2023-07-09T03:10:41;11.63;;;7.78;;
10100;SDS011;5090;51.258;4.436;2023-07-09T03:13:09;13.00;;;7.75;;
10100;SDS011;5090;51.258;4.436;2023-07-09T03:15:37;11.07;;;7.85;;
10100;SDS011;5090;51.258;4.436;2023-07-09T03:18:06;11.50;;;8.35;;
10100;SDS011;5090;51.258;4.436;2023-07-09T03:20:34;12.02;;;8.25;;
10100;SDS011;5090;51.258;4.436;2023-07-09T03:23:02;10.10;;;8.07;;
10100;SDS011;5090;51.258;4.436;2023-07-09T03:25:30;11.23;;;7.82;;
10100;SDS011;5090;51.258;4.436;2023-07-09T03:27:59;11.73;;;8.60;;
10100;SDS011;5090;51.258;4.436;2023-07-09T03:30:28;9.73;;;7.50;;
10100;SDS011;5090;51.258;4.436;2023-07-09T03:32:56;12.95;;;7.90;;
10100;SDS011;5090;51.258;4.436;2023-07-09T03:35:24;13.25;;;8.25;;
10100;SDS011;5090;51.258;4.436;2023-07-09T03:37:52;12.35;;;8.13;;
10100;SDS011;5090;51.258;4.436;2023-07-09T03:40:21;9.75;;;7.32;;
10100;SDS011;5090;51.258;4.436;2023-07-09T03:42:49;9.93;;;7.95;;
10100;SDS011;5090;51.258;4.436;2023-07-09T03:45:17;12.25;;;8.10;;
10100;SDS011;5090;51.258;4.436;2023-07-09T03:47:45;12.48;;;8.13;;
10100;SDS011;5090;51.258;4.436;2023-07-09T03:50:13;12.15;;;7.93;;
10100;SDS011;5090;51.258;4.436;2023-07-09T03:52:41;12.73;;;8.70;;
10100;SDS011;5090;51.258;4.436;2023-07-09T03:55:09;12.35;;;8.05;;
10100;SDS011;5090;51.258;4.436;2023-07-09T03:57:38;11.15;;;8.20;;
10100;SDS011;5090;51.258;4.436;2023-07-09T04:00:06;11.65;;;8.27;;
10100;SDS011;5090;51.258;4.436;2023-07-09T04:02:34;9.85;;;8.40;;
10100;SDS011;5090;51.258;4.436;2023-07-09T04:05:03;12.63;;;7.93;;
10100;SDS011;5090;51.258;4.436;2023-07-09T04:07:31;11.55;;;7.55;;
10100;SDS011;5090;51.258;4.436;2023-07-09T04:09:59;10.27;;;8.18;;
10100;SDS011;5090;51.258;4.436;2023-07-09T04:12:27;9.90;;;7.62;;
10100;SDS011;5090;51.258;4.436;2023-07-09T04:14:55;12.15;;;8.38;;
10100;SDS011;5090;51.258;4.436;2023-07-09T04:17:23;12.75;;;8.65;;
10100;SDS011;5090;51.258;4.436;2023-07-09T04:19:52;10.52;;;7.80;;
10100;SDS011;5090;51.258;4.436;2023-07-09T04:22:20;9.88;;;8.02;;
10100;SDS011;5090;51.258;4.436;2023-07-09T04:24:48;14.32;;;8.23;;
10100;SDS011;5090;51.258;4.436;2023-07-09T04:27:16;10.25;;;8.07;;
10100;SDS011;5090;51.258;4.436;2023-07-09T04:29:44;11.50;;;7.95;;
10100;SDS011;5090;51.258;4.436;2023-07-09T04:32:14;10.13;;;7.45;;
10100;SDS011;5090;51.258;4.436;2023-07-09T04:34:41;12.07;;;8.07;;
10100;SDS011;5090;51.258;4.436;2023-07-09T04:37:09;9.13;;;8.05;;
10100;SDS011;5090;51.258;4.436;2023-07-09T04:39:37;11.15;;;7.85;;
10100;SDS011;5090;51.258;4.436;2023-07-09T04:42:05;9.73;;;7.70;;
10100;SDS011;5090;51.258;4.436;2023-07-09T04:44:34;10.18;;;7.60;;
10100;SDS011;5090;51.258;4.436;2023-07-09T04:47:02;12.05;;;7.85;;
10100;SDS011;5090;51.258;4.436;2023-07-09T04:49:30;12.52;;;8.65;;
10100;SDS011;5090;51.258;4.436;2023-07-09T04:51:59;9.65;;;8.25;;
10100;SDS011;5090;51.258;4.436;2023-07-09T04:54:27;12.07;;;7.95;;
10100;SDS011;5090;51.258;4.436;2023-07-09T04:56:55;10.25;;;7.40;;
10100;SDS011;5090;51.258;4.436;2023-07-09T04:59:23;11.82;;;8.40;;
10100;SDS011;5090;51.258;4.436;2023-07-09T05:01:51;14.10;;;9.52;;
10100;SDS011;5090;51.258;4.436;2023-07-09T05:04:19;23.73;;;8.63;;
10100;SDS011;5090;51.258;4.436;2023-07-09T05:06:47;10.98;;;7.37;;
10100;SDS011;5090;51.258;4.436;2023-07-09T05:09:15;14.13;;;8.18;;
10100;SDS011;5090;51.258;4.436;2023-07-09T05:11:44;8.50;;;6.90;;
10100;SDS011;5090;51.258;4.436;2023-07-09T05:14:12;10.32;;;7.00;;
10100;SDS011;5090;51.258;4.436;2023-07-09T05:16:40;8.98;;;7.00;;
10100;SDS011;5090;51.258;4.436;2023-07-09T05:19:08;9.05;;;6.78;;
10100;SDS011;5090;51.258;4.436;2023-07-09T05:21:36;9.88;;;6.25;;
10100;SDS011;5090;51.258;4.436;2023-07-09T05:24:05;9.82;;;6.53;;
10100;SDS011;5090;51.258;4.436;2023-07-09T05:26:33;8.43;;;6.22;;
10100;SDS011;5090;51.258;4.436;2023-07-09T05:29:02;10.02;;;5.70;;
10100;SDS011;5090;51.258;4.436;2023-07-09T05:31:30;8.48;;;5.62;;
10100;SDS011;5090;51.258;4.436;2023-07-09T05:33:59;9.60;;;5.97;;
10100;SDS011;5090;51.258;4.436;2023-07-09T05:36:27;9.23;;;6.35;;
10100;SDS011;5090;51.258;4.436;2023-07-09T05:38:55;10.55;;;5.70;;
10100;SDS011;5090;51.258;4.436;2023-07-09T05:41:23;9.20;;;5.97;;
10100;SDS011;5090;51.258;4.436;2023-07-09T05:43:51;7.93;;;5.93;;
10100;SDS011;5090;51.258;4.436;2023-07-09T05:46:21;10.13;;;6.32;;
10100;SDS011;5090;51.258;4.436;2023-07-09T05:48:48;8.30;;;6.22;;
10100;SDS011;5090;51.258;4.436;2023-07-09T05:51:16;8.23;;;5.37;;
10100;SDS011;5090;51.258;4.436;2023-07-09T05:53:44;8.52;;;5.50;;
10100;SDS011;5090;51.258;4.436;2023-07-09T05:56:12;9.25;;;5.50;;
10100;SDS011;5090;51.258;4.436;2023-07-09T05:58:40;11.40;;;5.47;;
10100;SDS011;5090;51.258;4.436;2023-07-09T06:01:09;10.90;;;5.72;;
10100;SDS011;5090;51.258;4.436;2023-07-09T06:03:37;10.27;;;5.53;;
10100;SDS011;5090;51.258;4.436;2023-07-09T06:06:05;9.90;;;5.95;;
10100;SDS011;5090;51.258;4.436;2023-07-09T06:08:33;10.00;;;5.32;;
10100;SDS011;5090;51.258;4.436;2023-07-09T06:11:02;7.22;;;5.45;;
10100;SDS011;5090;51.258;4.436;2023-07-09T06:13:30;9.27;;;5.68;;
10100;SDS011;5090;51.258;4.436;2023-07-09T06:15:59;8.73;;;5.40;;
10100;SDS011;5090;51.258;4.436;2023-07-09T06:18:27;9.98;;;5.22;;
10100;SDS011;5090;51.258;4.436;2023-07-09T06:20:57;9.32;;;5.35;;
10100;SDS011;5090;51.258;4.436;2023-07-09T06:23:25;7.70;;;5.37;;
10100;SDS011;5090;51.258;4.436;2023-07-09T06:25:53;7.80;;;5.62;;
10100;SDS011;5090;51.258;4.436;2023-07-09T06:28:22;9.43;;;5.35;;
10100;SDS011;5090;51.258;4.436;2023-07-09T06:30:49;7.90;;;5.53;;
10100;SDS011;5090;51.258;4.436;2023-07-09T06:33:18;8.77;;;6.60;;
10100;SDS011;5090;51.258;4.436;2023-07-09T06:35:46;11.88;;;6.60;;
10100;SDS011;5090;51.258;4.436;2023-07-09T06:38:14;11.38;;;6.57;;
10100;SDS011;5090;51.258;4.436;2023-07-09T06:40:42;9.45;;;6.62;;
10100;SDS011;5090;51.258;4.436;2023-07-09T06:43:10;11.43;;;6.30;;
10100;SDS011;5090;51.258;4.436;2023-07-09T06:45:38;11.38;;;7.05;;
10100;SDS011;5090;51.258;4.436;2023-07-09T06:48:06;10.40;;;6.75;;
10100;SDS011;5090;51.258;4.436;2023-07-09T06:50:36;11.32;;;6.15;;
10100;SDS011;5090;51.258;4.436;2023-07-09T06:53:03;14.02;;;5.90;;
10100;SDS011;5090;51.258;4.436;2023-07-09T06:55:31;12.18;;;6.32;;
10100;SDS011;5090;51.258;4.436;2023-07-09T06:57:59;9.27;;;5.60;;
10100;SDS011;5090;51.258;4.436;2023-07-09T07:00:27;9.88;;;6.62;;
10100;SDS011;5090;51.258;4.436;2023-07-09T07:02:55;14.43;;;7.57;;
10100;SDS011;5090;51.258;4.436;2023-07-09T07:05:24;16.20;;;9.38;;
10100;SDS011;5090;51.258;4.436;2023-07-09T07:07:52;16.12;;;9.82;;
10100;SDS011;5090;51.258;4.436;2023-07-09T07:10:20;20.00;;;13.73;;
10100;SDS011;5090;51.258;4.436;2023-07-09T07:12:48;20.98;;;15.80;;
10100;SDS011;5090;51.258;4.436;2023-07-09T07:15:17;22.27;;;16.85;;
10100;SDS011;5090;51.258;4.436;2023-07-09T07:17:45;24.67;;;18.45;;
10100;SDS011;5090;51.258;4.436;2023-07-09T07:20:13;20.77;;;18.30;;
10100;SDS011;5090;51.258;4.436;2023-07-09T07:22:41;21.95;;;18.75;;
10100;SDS011;5090;51.258;4.436;2023-07-09T07:25:10;27.05;;;20.58;;
10100;SDS011;5090;51.258;4.436;2023-07-09T07:27:39;28.55;;;21.23;;
10100;SDS011;5090;51.258;4.436;2023-07-09T07:30:07;26.20;;;21.15;;
10100;SDS011;5090;51.258;4.436;2023-07-09T07:32:38;24.12;;;21.20;;
10100;SDS011;5090;51.258;4.436;2023-07-09T07:35:05;32.33;;;20.83;;
10100;SDS011;5090;51.258;4.436;2023-07-09T07:37:34;24.52;;;20.15;;
10100;SDS011;5090;51.258;4.436;2023-07-09T07:40:02;22.45;;;19.05;;
10100;SDS011;5090;51.258;4.436;2023-07-09T07:42:30;24.80;;;19.17;;
10100;SDS011;5090;51.258;4.436;2023-07-09T07:44:58;25.80;;;20.17;;
10100;SDS011;5090;51.258;4.436;2023-07-09T07:47:26;22.98;;;19.50;;
10100;SDS011;5090;51.258;4.436;2023-07-09T07:49:55;25.85;;;20.10;;
10100;SDS011;5090;51.258;4.436;2023-07-09T07:52:23;27.05;;;20.65;;
10100;SDS011;5090;51.258;4.436;2023-07-09T07:54:51;23.20;;;16.52;;
10100;SDS011;5090;51.258;4.436;2023-07-09T07:57:19;22.90;;;19.12;;
10100;SDS011;5090;51.258;4.436;2023-07-09T07:59:47;22.17;;;17.95;;
10100;SDS011;5090;51.258;4.436;2023-07-09T08:02:16;26.52;;;16.77;;
10100;SDS011;5090;51.258;4.436;2023-07-09T08:04:44;18.05;;;14.32;;
10100;SDS011;5090;51.258;4.436;2023-07-09T08:07:12;21.92;;;13.55;;
10100;SDS011;5090;51.258;4.436;2023-07-09T08:09:40;20.52;;;15.30;;
10100;SDS011;5090;51.258;4.436;2023-07-09T08:12:09;26.50;;;17.10;;
10100;SDS011;5090;51.258;4.436;2023-07-09T08:14:38;25.50;;;19.10;;
10100;SDS011;5090;51.258;4.436;2023-07-09T08:17:05;23.87;;;18.83;;
10100;SDS011;5090;51.258;4.436;2023-07-09T08:19:49;24.40;;;16.27;;
10100;SDS011;5090;51.258;4.436;2023-07-09T08:22:17;20.83;;;18.12;;
10100;SDS011;5090;51.258;4.436;2023-07-09T08:24:45;27.83;;;18.02;;
10100;SDS011;5090;51.258;4.436;2023-07-09T08:27:13;18.70;;;15.60;;
10100;SDS011;5090;51.258;4.436;2023-07-09T08:29:41;24.42;;;16.77;;
10100;SDS011;5090;51.258;4.436;2023-07-09T08:32:10;18.17;;;14.30;;
10100;SDS011;5090;51.258;4.436;2023-07-09T08:34:39;21.33;;;14.75;;
10100;SDS011;5090;51.258;4.436;2023-07-09T08:37:07;20.85;;;13.48;;
10100;SDS011;5090;51.258;4.436;2023-07-09T08:39:35;19.75;;;12.73;;
10100;SDS011;5090;51.258;4.436;2023-07-09T08:42:04;17.05;;;12.63;;
10100;SDS011;5090;51.258;4.436;2023-07-09T08:47:06;16.67;;;12.63;;
10100;SDS011;5090;51.258;4.436;2023-07-09T08:49:38;18.55;;;12.40;;
10100;SDS011;5090;51.258;4.436;2023-07-09T08:52:09;15.02;;;11.40;;
10100;SDS011;5090;51.258;4.436;2023-07-09T08:54:33;17.42;;;11.32;;
10100;SDS011;5090;51.258;4.436;2023-07-09T08:57:07;16.67;;;12.93;;
10100;SDS011;5090;51.258;4.436;2023-07-09T08:59:30;19.62;;;13.77;;
10100;SDS011;5090;51.258;4.436;2023-07-09T09:01:58;18.27;;;13.10;;
10100;SDS011;5090;51.258;4.436;2023-07-09T09:04:28;21.37;;;13.90;;
10100;SDS011;5090;51.258;4.436;2023-07-09T09:06:59;18.58;;;14.05;;
10100;SDS011;5090;51.258;4.436;2023-07-09T09:09:29;15.43;;;12.10;;
10100;SDS011;5090;51.258;4.436;2023-07-09T09:12:01;15.35;;;13.40;;
10100;SDS011;5090;51.258;4.436;2023-07-09T09:14:30;20.95;;;11.63;;
10100;SDS011;5090;51.258;4.436;2023-07-09T09:16:57;16.17;;;12.18;;
10100;SDS011;5090;51.258;4.436;2023-07-09T09:19:44;18.20;;;12.00;;
10100;SDS011;5090;51.258;4.436;2023-07-09T09:22:07;16.50;;;9.90;;
10100;SDS011;5090;51.258;4.436;2023-07-09T09:24:35;17.23;;;10.82;;
10100;SDS011;5090;51.258;4.436;2023-07-09T09:27:03;17.70;;;10.85;;
10100;SDS011;5090;51.258;4.436;2023-07-09T09:29:31;15.95;;;9.45;;
10100;SDS011;5090;51.258;4.436;2023-07-09T09:31:59;18.77;;;9.77;;
10100;SDS011;5090;51.258;4.436;2023-07-09T09:34:28;13.13;;;9.50;;
10100;SDS011;5090;51.258;4.436;2023-07-09T09:36:56;14.00;;;8.93;;
10100;SDS011;5090;51.258;4.436;2023-07-09T09:39:25;13.57;;;8.05;;
10100;SDS011;5090;51.258;4.436;2023-07-09T09:41:54;13.18;;;8.77;;
10100;SDS011;5090;51.258;4.436;2023-07-09T09:44:25;15.10;;;8.98;;
10100;SDS011;5090;51.258;4.436;2023-07-09T09:46:52;11.40;;;8.85;;
10100;SDS011;5090;51.258;4.436;2023-07-09T09:49:20;11.15;;;7.85;;
10100;SDS011;5090;51.258;4.436;2023-07-09T09:51:48;14.15;;;8.35;;
10100;SDS011;5090;51.258;4.436;2023-07-09T09:54:20;14.63;;;8.60;;
10100;SDS011;5090;51.258;4.436;2023-07-09T09:56:48;11.40;;;8.00;;
10100;SDS011;5090;51.258;4.436;2023-07-09T09:59:17;9.15;;;7.12;;
10100;SDS011;5090;51.258;4.436;2023-07-09T10:01:44;13.13;;;8.80;;
10100;SDS011;5090;51.258;4.436;2023-07-09T10:04:16;8.48;;;7.07;;
10100;SDS011;5090;51.258;4.436;2023-07-09T10:06:43;15.73;;;7.93;;
10100;SDS011;5090;51.258;4.436;2023-07-09T10:09:16;9.57;;;7.75;;
10100;SDS011;5090;51.258;4.436;2023-07-09T10:11:46;12.65;;;7.55;;
10100;SDS011;5090;51.258;4.436;2023-07-09T10:14:21;11.45;;;8.15;;
10100;SDS011;5090;51.258;4.436;2023-07-09T10:16:44;16.27;;;9.15;;
10100;SDS011;5090;51.258;4.436;2023-07-09T10:19:16;14.75;;;9.52;;
10100;SDS011;5090;51.258;4.436;2023-07-09T10:21:45;10.55;;;8.35;;
10100;SDS011;5090;51.258;4.436;2023-07-09T10:24:15;11.52;;;7.85;;
10100;SDS011;5090;51.258;4.436;2023-07-09T10:26:40;10.88;;;8.20;;
10100;SDS011;5090;51.258;4.436;2023-07-09T10:29:16;12.35;;;8.30;;
10100;SDS011;5090;51.258;4.436;2023-07-09T10:31:40;11.60;;;8.25;;
10100;SDS011;5090;51.258;4.436;2023-07-09T10:34:09;12.10;;;7.93;;
10100;SDS011;5090;51.258;4.436;2023-07-09T10:36:38;13.70;;;8.68;;
10100;SDS011;5090;51.258;4.436;2023-07-09T10:39:03;11.98;;;7.53;;
10100;SDS011;5090;51.258;4.436;2023-07-09T10:41:30;12.40;;;8.13;;
10100;SDS011;5090;51.258;4.436;2023-07-09T10:44:01;11.25;;;7.35;;
10100;SDS011;5090;51.258;4.436;2023-07-09T10:46:28;11.10;;;6.25;;
10100;SDS011;5090;51.258;4.436;2023-07-09T10:48:56;9.23;;;6.32;;
10100;SDS011;5090;51.258;4.436;2023-07-09T10:51:28;14.02;;;6.25;;
10100;SDS011;5090;51.258;4.436;2023-07-09T10:53:59;10.80;;;6.10;;
10100;SDS011;5090;51.258;4.436;2023-07-09T10:56:27;13.57;;;6.72;;
10100;SDS011;5090;51.258;4.436;2023-07-09T10:59:29;9.27;;;5.68;;
10100;SDS011;5090;51.258;4.436;2023-07-09T11:01:40;8.52;;;4.95;;
10100;SDS011;5090;51.258;4.436;2023-07-09T11:04:11;6.25;;;4.28;;
10100;SDS011;5090;51.258;4.436;2023-07-09T11:06:40;8.40;;;4.32;;
10100;SDS011;5090;51.258;4.436;2023-07-09T11:09:11;7.18;;;4.53;;
10100;SDS011;5090;51.258;4.436;2023-07-09T11:11:38;10.38;;;5.12;;
10100;SDS011;5090;51.258;4.436;2023-07-09T11:14:08;7.70;;;4.03;;
10100;SDS011;5090;51.258;4.436;2023-07-09T11:16:36;7.05;;;3.92;;
10100;SDS011;5090;51.258;4.436;2023-07-09T11:19:04;8.57;;;4.40;;
10100;SDS011;5090;51.258;4.436;2023-07-09T11:21:33;7.57;;;4.55;;
10100;SDS011;5090;51.258;4.436;2023-07-09T11:24:01;8.82;;;4.03;;
10100;SDS011;5090;51.258;4.436;2023-07-09T11:26:30;5.97;;;4.47;;
10100;SDS011;5090;51.258;4.436;2023-07-09T11:29:17;8.45;;;3.97;;
10100;SDS011;5090;51.258;4.436;2023-07-09T11:31:45;6.22;;;4.20;;
10100;SDS011;5090;51.258;4.436;2023-07-09T11:34:16;6.82;;;4.07;;
10100;SDS011;5090;51.258;4.436;2023-07-09T11:36:46;5.25;;;3.25;;
10100;SDS011;5090;51.258;4.436;2023-07-09T11:39:17;6.62;;;3.20;;
10100;SDS011;5090;51.258;4.436;2023-07-09T11:41:44;5.55;;;3.40;;
10100;SDS011;5090;51.258;4.436;2023-07-09T11:44:17;6.72;;;3.30;;
10100;SDS011;5090;51.258;4.436;2023-07-09T11:46:52;7.10;;;3.17;;
10100;SDS011;5090;51.258;4.436;2023-07-09T11:49:22;4.53;;;2.95;;
10100;SDS011;5090;51.258;4.436;2023-07-09T11:51:52;8.18;;;3.45;;
10100;SDS011;5090;51.258;4.436;2023-07-09T11:54:18;5.87;;;4.00;;
10100;SDS011;5090;51.258;4.436;2023-07-09T11:56:53;5.90;;;3.62;;
10100;SDS011;5090;51.258;4.436;2023-07-09T11:59:22;6.90;;;3.35;;
10100;SDS011;5090;51.258;4.436;2023-07-09T12:01:50;5.68;;;3.28;;
10100;SDS011;5090;51.258;4.436;2023-07-09T12:04:18;6.18;;;2.72;;
10100;SDS011;5090;51.258;4.436;2023-07-09T12:06:46;7.15;;;3.10;;
10100;SDS011;5090;51.258;4.436;2023-07-09T12:09:16;5.90;;;3.62;;
10100;SDS011;5090;51.258;4.436;2023-07-09T12:11:44;7.40;;;3.62;;
10100;SDS011;5090;51.258;4.436;2023-07-09T12:14:12;6.72;;;3.12;;
10100;SDS011;5090;51.258;4.436;2023-07-09T12:16:41;7.72;;;3.40;;
10100;SDS011;5090;51.258;4.436;2023-07-09T12:19:09;3.97;;;3.12;;
10100;SDS011;5090;51.258;4.436;2023-07-09T12:21:38;6.20;;;3.30;;
10100;SDS011;5090;51.258;4.436;2023-07-09T12:24:15;7.62;;;3.83;;
10100;SDS011;5090;51.258;4.436;2023-07-09T12:26:39;5.72;;;3.33;;
10100;SDS011;5090;51.258;4.436;2023-07-09T12:29:08;9.35;;;3.78;;
10100;SDS011;5090;51.258;4.436;2023-07-09T12:31:36;7.72;;;3.17;;
10100;SDS011;5090;51.258;4.436;2023-07-09T12:34:04;7.68;;;3.17;;
10100;SDS011;5090;51.258;4.436;2023-07-09T12:36:32;5.78;;;4.03;;
10100;SDS011;5090;51.258;4.436;2023-07-09T12:39:01;9.70;;;4.12;;
10100;SDS011;5090;51.258;4.436;2023-07-09T12:41:32;10.05;;;2.95;;
10100;SDS011;5090;51.258;4.436;2023-07-09T12:43:57;9.75;;;3.20;;
10100;SDS011;5090;51.258;4.436;2023-07-09T12:46:25;6.15;;;3.35;;
10100;SDS011;5090;51.258;4.436;2023-07-09T12:48:54;7.95;;;3.62;;
10100;SDS011;5090;51.258;4.436;2023-07-09T12:51:23;8.65;;;4.35;;
10100;SDS011;5090;51.258;4.436;2023-07-09T12:56:25;12.95;;;3.97;;
10100;SDS011;5090;51.258;4.436;2023-07-09T12:58:56;11.73;;;3.97;;
10100;SDS011;5090;51.258;4.436;2023-07-09T13:01:21;11.95;;;4.72;;
10100;SDS011;5090;51.258;4.436;2023-07-09T13:03:52;9.05;;;4.22;;
10100;SDS011;5090;51.258;4.436;2023-07-09T13:06:26;16.95;;;5.68;;
10100;SDS011;5090;51.258;4.436;2023-07-09T13:08:55;14.38;;;5.20;;
10100;SDS011;5090;51.258;4.436;2023-07-09T13:11:22;14.60;;;5.43;;
10100;SDS011;5090;51.258;4.436;2023-07-09T13:13:53;21.27;;;6.47;;
10100;SDS011;5090;51.258;4.436;2023-07-09T13:16:21;19.10;;;7.10;;
10100;SDS011;5090;51.258;4.436;2023-07-09T13:18:49;14.98;;;5.35;;
10100;SDS011;5090;51.258;4.436;2023-07-09T13:21:18;12.30;;;4.50;;
10100;SDS011;5090;51.258;4.436;2023-07-09T13:23:45;8.27;;;3.47;;
10100;SDS011;5090;51.258;4.436;2023-07-09T13:26:14;8.40;;;3.55;;
10100;SDS011;5090;51.258;4.436;2023-07-09T13:28:42;7.50;;;3.60;;
10100;SDS011;5090;51.258;4.436;2023-07-09T13:31:11;9.50;;;3.90;;
10100;SDS011;5090;51.258;4.436;2023-07-09T13:33:38;8.75;;;4.57;;
10100;SDS011;5090;51.258;4.436;2023-07-09T13:36:06;10.30;;;4.72;;
10100;SDS011;5090;51.258;4.436;2023-07-09T13:38:34;13.65;;;4.75;;
10100;SDS011;5090;51.258;4.436;2023-07-09T13:41:10;14.75;;;5.20;;
10100;SDS011;5090;51.258;4.436;2023-07-09T13:43:37;11.90;;;4.85;;
10100;SDS011;5090;51.258;4.436;2023-07-09T13:46:05;12.63;;;5.60;;
10100;SDS011;5090;51.258;4.436;2023-07-09T13:48:34;15.02;;;5.12;;
10100;SDS011;5090;51.258;4.436;2023-07-09T13:51:01;9.50;;;4.72;;
10100;SDS011;5090;51.258;4.436;2023-07-09T13:53:30;8.18;;;4.53;;
10100;SDS011;5090;51.258;4.436;2023-07-09T13:55:58;12.07;;;5.20;;
10100;SDS011;5090;51.258;4.436;2023-07-09T13:58:26;11.32;;;5.70;;
10100;SDS011;5090;51.258;4.436;2023-07-09T14:00:56;11.48;;;6.12;;
10100;SDS011;5090;51.258;4.436;2023-07-09T14:03:24;9.40;;;5.87;;
10100;SDS011;5090;51.258;4.436;2023-07-09T14:05:51;11.90;;;6.43;;
10100;SDS011;5090;51.258;4.436;2023-07-09T14:08:20;14.55;;;7.00;;
10100;SDS011;5090;51.258;4.436;2023-07-09T14:10:47;13.70;;;7.25;;
10100;SDS011;5090;51.258;4.436;2023-07-09T14:13:16;14.75;;;7.12;;
10100;SDS011;5090;51.258;4.436;2023-07-09T14:15:44;12.60;;;7.45;;
10100;SDS011;5090;51.258;4.436;2023-07-09T14:18:13;14.25;;;7.03;;
10100;SDS011;5090;51.258;4.436;2023-07-09T14:20:40;16.25;;;8.15;;
10100;SDS011;5090;51.258;4.436;2023-07-09T14:23:10;14.02;;;8.98;;
10100;SDS011;5090;51.258;4.436;2023-07-09T14:25:37;13.52;;;8.73;;
10100;SDS011;5090;51.258;4.436;2023-07-09T14:28:08;16.62;;;8.73;;
10100;SDS011;5090;51.258;4.436;2023-07-09T14:30:34;19.52;;;9.68;;
10100;SDS011;5090;51.258;4.436;2023-07-09T14:33:03;16.77;;;9.77;;
10100;SDS011;5090;51.258;4.436;2023-07-09T14:35:31;13.88;;;10.02;;
10100;SDS011;5090;51.258;4.436;2023-07-09T14:37:59;17.15;;;10.18;;
10100;SDS011;5090;51.258;4.436;2023-07-09T14:40:28;17.50;;;10.52;;
10100;SDS011;5090;51.258;4.436;2023-07-09T14:42:56;26.27;;;12.32;;
10100;SDS011;5090;51.258;4.436;2023-07-09T14:45:25;18.50;;;10.55;;
10100;SDS011;5090;51.258;4.436;2023-07-09T14:47:53;20.02;;;9.02;;
10100;SDS011;5090;51.258;4.436;2023-07-09T14:50:23;16.62;;;9.00;;
10100;SDS011;5090;51.258;4.436;2023-07-09T14:52:51;15.82;;;9.63;;
10100;SDS011;5090;51.258;4.436;2023-07-09T14:55:24;12.25;;;8.40;;
10100;SDS011;5090;51.258;4.436;2023-07-09T14:57:53;14.85;;;7.90;;
10100;SDS011;5090;51.258;4.436;2023-07-09T15:00:21;17.08;;;8.70;;
10100;SDS011;5090;51.258;4.436;2023-07-09T15:02:50;14.68;;;9.48;;
10100;SDS011;5090;51.258;4.436;2023-07-09T15:05:19;14.98;;;9.23;;
10100;SDS011;5090;51.258;4.436;2023-07-09T15:07:47;14.57;;;9.05;;
10100;SDS011;5090;51.258;4.436;2023-07-09T15:10:16;13.57;;;8.30;;